Flight Track Log - Related Links

Times and Time Zones

All times are in EDT time to prevent confusion due to time zone crossing. See the RPA3346 flight status page for this flight to view local times or setup timezone preferences in your user account.

Time Position Orientation Groundspeed Altitude Reporting Facility
EDT Latitude Longitude Course Direction KTS MPH feet Rate Location/Type
Wed 08:51:13 AM 39.7333 -86.2833 74° East 160 184 1,700  Level Indianapolis TRACON
Wed 08:51:49 AM 39.7500 -86.2500 57° Northeast 179 206 2,600 2,294 Climbing Indianapolis TRACON
Wed 08:52:55 AM 39.7667 -86.1667 75° East 270 311 5,600 3,060 Climbing Indianapolis TRACON
Wed 08:53:00 AM 39.7750 -85.8667 83° East  Level FlightAware Approximate
Wed 08:54:00 AM 39.7922 -85.7260 79° East  Level FlightAware Approximate
Wed 08:54:18 AM 39.7881 -86.0389 78° East 270 311 10,200  Level Indianapolis Center
Wed 08:55:00 AM 39.8137 -85.5862 79° East  Level FlightAware Approximate
Wed 08:55:20 AM 39.8017 -85.9308 81° East 304 350 12,800  Level Indianapolis Center
Wed 08:56:00 AM 39.8429 -85.4488 74° East  Level FlightAware Approximate
Wed 08:56:22 AM 39.8092 -85.8153 85° East 320 368 15,500  Level Indianapolis Center
Wed 08:57:23 AM 39.8133 -85.6928 87° East 333 383 18,100 2,390 Climbing Indianapolis Center
Wed 08:58:25 AM 39.8169 -85.5686 88° East 343 395 20,400 2,177 Climbing Indianapolis Center
Wed 08:59:27 AM 39.8200 -85.4392 88° East 356 410 22,600 2,177 Climbing Indianapolis Center
Wed 09:00:29 AM 39.8244 -85.2761 88° East 375 432 24,900 1,306 Climbing Indianapolis Center
Wed 09:01:31 AM 39.8283 -85.1392 88° East 379 436 25,300 1,122 Climbing Indianapolis Center
Wed 09:02:32 AM 39.8319 -85.0003 88° East 384 442 27,200 1,512 Climbing Indianapolis Center
Wed 09:03:34 AM 39.8350 -84.8650 88° East 393 452 28,400 1,500 Climbing Indianapolis Center
Wed 09:04:36 AM 39.8389 -84.7203 88° East 397 457 30,300 1,258 Climbing Indianapolis Center
Wed 09:05:38 AM 39.8411 -84.5539 89° East 392 451 31,000 339 Climbing Indianapolis Center
Wed 09:06:40 AM 39.8442 -84.4122 88° East 390 449 31,000  Level Indianapolis Center
Wed 09:07:41 AM 39.8469 -84.2692 89° East 391 450 31,000  Level Indianapolis Center
Wed 09:08:43 AM 39.8497 -84.1267 88° East 392 451 31,000  Level Indianapolis Center
Wed 09:09:45 AM 39.8519 -83.9842 89° East 391 450 31,000  Level Indianapolis Center
Wed 09:10:47 AM 39.8542 -83.8442 89° East 385 443 31,000  Level Indianapolis Center
Wed 09:11:49 AM 39.8561 -83.7031 89° East 387 445 31,000  Level Indianapolis Center
Wed 09:12:50 AM 39.8583 -83.5453 89° East 386 444 31,000  Level Indianapolis Center
Wed 09:13:52 AM 39.8600 -83.4042 89° East 387 445 31,000  Level Indianapolis Center
Wed 09:14:54 AM 39.8622 -83.2692 89° East 387 445 31,000  Level Indianapolis Center
Wed 09:15:56 AM 39.8633 -83.1281 89° East 386 444 31,000  Level Indianapolis Center
Wed 09:16:58 AM 39.8636 -82.9881 90° East 384 442 31,000  Level Indianapolis Center
Wed 09:18:00 AM 39.8650 -82.8239 89° East 384 442 31,000  Level Indianapolis Center
Wed 09:19:02 AM 39.8650 -82.6839 90° East 384 442 31,000  Level Indianapolis Center
Wed 09:20:04 AM 39.8658 -82.5439 90° East 384 442 31,000  Level Indianapolis Center
Wed 09:21:05 AM 39.8656 -82.4056 90° East 380 437 31,000  Level Indianapolis Center
Wed 09:22:07 AM 39.8675 -82.2658 89° East 381 438 31,000  Level Indianapolis Center
Wed 09:23:09 AM 39.8667 -82.1272 90° East 380 437 31,000  Level Indianapolis Center
Wed 09:24:11 AM 39.8672 -81.9858 90° East 386 444 31,000 -48 Level Indianapolis Center
Wed 09:25:13 AM 39.8658 -81.8467 91° East 384 442 30,900  Descending Indianapolis Center
Wed 09:26:15 AM 39.8658 -81.6869 90° East 376 433 31,000 51 Climbing Indianapolis Center
Wed 09:27:10 AM 39.8650 -81.5650 90° East 384 442 31,000  Level Cleveland Center
Wed 09:28:09 AM 39.8658 -81.4297 89° East 373 429 31,000  Level Cleveland Center
Wed 09:29:10 AM 39.8731 -81.3053 86° East 373 429 31,000  Level Cleveland Center
Wed 09:30:10 AM 39.8675 -81.1700 93° East 373 429 31,000  Level Cleveland Center
Wed 09:31:09 AM 39.8203 -81.0425 116° Southeast 373 429 31,000  Level Cleveland Center
Wed 09:32:09 AM 39.7664 -80.9153 119° Southeast 386 444 31,000  Level Cleveland Center
Wed 09:33:09 AM 39.7147 -80.7908 118° Southeast 386 444 31,000  Level Cleveland Center
Wed 09:34:10 AM 39.6586 -80.6667 120° Southeast 391 450 31,000  Level Cleveland Center
Wed 09:35:09 AM 39.6064 -80.5400 118° Southeast 396 456 31,000  Level Cleveland Center
Wed 09:36:09 AM 39.5522 -80.4133 119° Southeast 396 456 31,000  Level Cleveland Center
Wed 09:37:10 AM 39.4997 -80.2925 119° Southeast 396 456 31,000  Level Cleveland Center
Wed 09:38:19 AM 39.4381 -80.1467 119° Southeast 394 453 31,000  Level Washington Center
Wed 09:39:16 AM 39.3842 -80.0222 119° Southeast 394 453 31,000  Level Washington Center
Wed 09:40:17 AM 39.3283 -79.8981 120° Southeast 394 453 31,000  Level Washington Center
Wed 09:41:20 AM 39.2911 -79.7697 111° Southeast 394 453 31,000  Level Washington Center
Wed 09:42:17 AM 39.2794 -79.6269 96° East 386 444 31,000  Level Washington Center
Wed 09:43:18 AM 39.2692 -79.4897 95° East 386 444 31,000 -590 Level Washington Center
Wed 09:44:19 AM 39.2592 -79.3497 95° East 392 451 29,800 -1,636 Descending Washington Center
Wed 09:45:19 AM 39.2447 -79.2097 98° East 392 451 27,700 -1,525 Descending Washington Center
Wed 09:46:17 AM 39.2339 -79.0806 96° East 387 445 26,800 -966 Descending Washington Center
Wed 09:47:17 AM 39.2231 -78.9514 96° East 373 429 25,800 -1,388 Descending Washington Center
Wed 09:48:18 AM 39.2117 -78.8303 97° East 361 415 24,000 -1,835 Descending Washington Center
Wed 09:49:18 AM 39.2003 -78.7092 97° East 350 403 22,100 -1,785 Descending Washington Center
Wed 09:50:19 AM 39.1867 -78.5908 98° East 344 396 20,400 -1,815 Descending Washington Center
Wed 09:51:17 AM 39.1750 -78.4725 97° East 334 384 18,500 -1,815 Descending Washington Center
Wed 09:52:18 AM 39.1589 -78.3514 100° East 334 384 16,800 -1,230 Descending Washington Center
Wed 09:53:19 AM 39.1325 -78.2381 107° East 334 384 16,000 -843 Descending Washington Center
Wed 09:54:19 AM 39.1036 -78.1247 108° East 339 390 15,100 -966 Descending Washington Center
Wed 09:55:17 AM 39.0747 -78.0114 108° East 339 390 14,100 -1,068 Descending Washington Center
Wed 09:56:17 AM 39.0456 -77.9008 109° East 333 383 13,000 -1,300 Descending Washington Center
Wed 09:57:17 AM 39.0203 -77.7958 107° East 317 365 11,500 -984 Descending Washington Center
Wed 09:58:19 AM 38.9969 -77.7042 108° East 305 351 11,000 -453 Descending Washington Center
Wed 09:59:03 AM 38.9667 -77.6167 114° Southeast 278 320 10,700 -1,038 Descending Potomac TRACON
Wed 10:00:03 AM 38.9500 -77.5333 104° East 276 318 9,200 -1,368 Descending Potomac TRACON
Wed 10:00:57 AM 38.9167 -77.4500 117° Southeast 275 316 8,100 -1,263 Descending Potomac TRACON
Wed 10:01:57 AM 38.8833 -77.3667 117° Southeast 264 304 6,800 -1,105 Descending Potomac TRACON
Wed 10:02:51 AM 38.8500 -77.3000 123° Southeast 238 274 6,000 -440 Descending Potomac TRACON
Wed 10:03:46 AM 38.8167 -77.2333 123° Southeast 221 254 6,000 -446 Level Potomac TRACON
Wed 10:04:52 AM 38.7833 -77.1667 123° Southeast 221 254 5,100 -1,000 Descending Potomac TRACON
Wed 10:05:46 AM 38.7500 -77.1167 131° Southeast 222 255 4,000 -947 Descending Potomac TRACON
Wed 10:06:46 AM 38.7000 -77.1000 165° South 188 216 3,300 -744 Descending Potomac TRACON
Wed 10:07:47 AM 38.7000 -77.0500 90° East 185 213 2,500 -595 Descending Potomac TRACON
Wed 10:08:47 AM 38.7500 -77.0333 15° North 184 212 2,100 -400 Descending Potomac TRACON

Login

Don't have an account? Register now (free) for customized features, flight alerts, and more!